createdAt,value
2019-01-23T00:00:13.206Z,79.73
2019-01-23T00:01:25.254Z,79.25
2019-01-23T00:02:30.442Z,79.28
2019-01-23T00:03:35.528Z,78.82
2019-01-23T00:04:40.717Z,79.15
2019-01-23T00:05:46.364Z,78.76
2019-01-23T00:06:51.435Z,79.81
2019-01-23T00:07:56.910Z,79.23
2019-01-23T00:09:02.756Z,80.00
2019-01-23T00:10:08.487Z,78.82
2019-01-23T00:11:13.248Z,79.79
2019-01-23T00:12:18.067Z,79.44
2019-01-23T00:13:23.172Z,79.33
2019-01-23T00:14:27.975Z,79.29
2019-01-23T00:15:33.642Z,79.08
2019-01-23T00:16:39.485Z,79.43
2019-01-23T00:17:44.242Z,78.84
2019-01-23T00:18:49.880Z,78.62
2019-01-23T00:19:54.643Z,78.94
2019-01-23T00:20:59.737Z,79.17
2019-01-23T00:22:04.575Z,79.46
2019-01-23T00:23:09.667Z,78.83
2019-01-23T00:24:15.079Z,78.76
2019-01-23T00:25:20.282Z,79.26
2019-01-23T00:26:25.329Z,79.45
2019-01-23T00:27:30.541Z,79.45
2019-01-23T00:28:35.687Z,79.51
2019-01-23T00:29:40.808Z,79.35
2019-01-23T00:30:45.914Z,79.50
2019-01-23T00:31:50.871Z,79.17
2019-01-23T00:32:55.644Z,78.69
2019-01-23T00:34:00.427Z,79.02
2019-01-23T00:35:05.478Z,78.99
2019-01-23T00:36:09.954Z,78.95
2019-01-23T00:37:15.057Z,79.76
2019-01-23T00:38:20.213Z,79.43
2019-01-23T00:39:25.400Z,78.26
2019-01-23T00:40:30.215Z,79.01
2019-01-23T00:41:35.280Z,79.46
2019-01-23T00:42:40.084Z,78.62
2019-01-23T00:43:44.867Z,78.24
2019-01-23T00:44:49.772Z,77.93
2019-01-23T00:45:55.149Z,77.76
2019-01-23T00:47:00.273Z,77.88
2019-01-23T00:48:05.115Z,78.73
2019-01-23T00:49:10.614Z,78.17
2019-01-23T00:50:15.135Z,78.59
2019-01-23T00:51:19.953Z,78.84
2019-01-23T00:52:24.798Z,77.76
2019-01-23T00:53:29.990Z,78.15
2019-01-23T00:54:35.507Z,77.52
2019-01-23T00:55:40.969Z,77.67
2019-01-23T00:56:45.454Z,77.83
2019-01-23T00:57:50.846Z,78.32
2019-01-23T00:58:56.747Z,77.47
2019-01-23T01:00:02.299Z,77.67
2019-01-23T01:01:31.337Z,77.76
2019-01-23T01:02:36.487Z,78.40
2019-01-23T01:03:41.596Z,77.15
2019-01-23T01:04:46.488Z,77.94
2019-01-23T01:05:51.261Z,77.30
2019-01-23T01:06:56.114Z,77.61
2019-01-23T01:08:01.563Z,77.95
2019-01-23T01:09:10.038Z,77.27
2019-01-23T01:10:15.903Z,76.19
2019-01-23T01:11:20.997Z,76.10
2019-01-23T01:12:25.816Z,77.59
2019-01-23T01:13:30.924Z,77.06
2019-01-23T01:14:36.037Z,76.25
2019-01-23T01:15:41.203Z,77.03
2019-01-23T01:16:45.737Z,76.72
2019-01-23T01:17:51.289Z,76.97
2019-01-23T01:18:56.064Z,77.04
2019-01-23T01:20:01.133Z,75.89
2019-01-23T01:21:05.944Z,76.82
2019-01-23T01:22:11.088Z,76.65
2019-01-23T01:23:16.736Z,77.11
2019-01-23T01:24:21.532Z,77.10
2019-01-23T01:25:26.350Z,76.57
2019-01-23T01:26:31.801Z,75.97
2019-01-23T01:27:36.611Z,76.81
2019-01-23T01:28:41.584Z,76.96
2019-01-23T01:29:46.718Z,76.62
2019-01-23T01:30:51.891Z,77.33
2019-01-23T01:31:56.382Z,76.52
2019-01-23T01:33:01.136Z,76.27
2019-01-23T01:34:07.850Z,75.59
2019-01-23T01:35:13.615Z,76.27
2019-01-23T01:36:18.402Z,77.08
2019-01-23T01:37:23.177Z,76.55
2019-01-23T01:38:28.726Z,75.61
2019-01-23T01:39:34.648Z,75.81
2019-01-23T01:40:39.758Z,76.53
2019-01-23T01:41:44.904Z,77.06
2019-01-23T01:42:49.404Z,77.07
2019-01-23T01:43:54.196Z,76.92
2019-01-23T01:44:58.698Z,76.04
2019-01-23T01:46:03.470Z,75.42
2019-01-23T01:47:08.786Z,76.88
2019-01-23T01:48:14.396Z,75.34
2019-01-23T01:49:19.576Z,75.18
2019-01-23T01:50:24.755Z,75.59
2019-01-23T01:51:29.602Z,74.69
2019-01-23T01:52:34.393Z,76.95
2019-01-23T01:53:39.180Z,75.59
2019-01-23T01:54:45.590Z,76.04
2019-01-23T01:55:50.527Z,75.29
2019-01-23T01:56:56.025Z,75.77
2019-01-23T01:58:02.669Z,75.82
2019-01-23T01:59:07.815Z,75.72
2019-01-23T02:00:18.574Z,76.63
2019-01-23T02:01:23.534Z,75.63
2019-01-23T02:02:28.396Z,76.89
2019-01-23T02:03:33.187Z,75.91
2019-01-23T02:04:37.967Z,74.93
2019-01-23T02:05:42.733Z,75.30
2019-01-23T02:06:47.515Z,74.55
2019-01-23T02:07:52.315Z,74.69
2019-01-23T02:08:57.093Z,74.66
2019-01-23T02:10:02.282Z,74.76
2019-01-23T02:11:07.620Z,75.10
2019-01-23T02:12:12.415Z,75.66
2019-01-23T02:13:17.579Z,76.67
2019-01-23T02:14:22.698Z,75.93
2019-01-23T02:15:27.219Z,74.11
2019-01-23T02:16:31.983Z,74.80
2019-01-23T02:17:37.156Z,74.41
2019-01-23T02:18:42.267Z,74.50
2019-01-23T02:19:47.449Z,74.48
2019-01-23T02:20:52.317Z,74.46
2019-01-23T02:21:57.587Z,75.31
2019-01-23T02:23:02.083Z,75.17
2019-01-23T02:24:06.882Z,74.53
2019-01-23T02:25:12.093Z,75.09
2019-01-23T02:26:17.660Z,74.67
2019-01-23T02:27:22.559Z,75.66
2019-01-23T02:28:27.044Z,75.42
2019-01-23T02:29:32.687Z,74.25
2019-01-23T02:30:37.451Z,75.46
2019-01-23T02:31:43.174Z,74.60
2019-01-23T02:32:47.988Z,74.89
2019-01-23T02:33:52.481Z,74.74
2019-01-23T02:34:57.560Z,75.82
2019-01-23T02:36:03.173Z,75.50
2019-01-23T02:37:08.557Z,75.47
2019-01-23T02:38:13.331Z,74.20
2019-01-23T02:39:17.810Z,73.92
2019-01-23T02:40:23.642Z,74.85
2019-01-23T02:41:28.748Z,73.43
2019-01-23T02:42:33.555Z,74.53
2019-01-23T02:43:38.587Z,74.09
2019-01-23T02:44:43.480Z,74.16
2019-01-23T02:45:47.959Z,76.16
2019-01-23T02:46:53.479Z,75.04
2019-01-23T02:47:57.987Z,74.88
2019-01-23T02:49:03.089Z,73.93
2019-01-23T02:50:07.999Z,73.69
2019-01-23T02:51:12.749Z,74.51
2019-01-23T02:52:17.524Z,73.87
2019-01-23T02:53:23.049Z,73.94
2019-01-23T02:54:27.566Z,73.03
2019-01-23T02:55:32.423Z,73.65
2019-01-23T02:56:37.186Z,74.04
2019-01-23T02:57:41.694Z,73.12
2019-01-23T02:58:46.522Z,75.65
2019-01-23T02:59:51.626Z,74.06
2019-01-23T03:00:57.275Z,74.13
2019-01-23T03:02:02.412Z,73.98
2019-01-23T03:03:07.425Z,73.00
2019-01-23T03:04:11.941Z,73.57
2019-01-23T03:05:18.553Z,74.29
2019-01-23T03:06:23.035Z,72.94
2019-01-23T03:07:28.136Z,73.80
2019-01-23T03:08:32.906Z,73.18
2019-01-23T03:09:38.697Z,74.32
2019-01-23T03:10:43.806Z,74.47
2019-01-23T03:11:48.915Z,74.79
2019-01-23T03:12:54.161Z,73.74
2019-01-23T03:13:58.970Z,72.63
2019-01-23T03:15:03.757Z,73.48
2019-01-23T03:16:08.561Z,73.25
2019-01-23T03:17:13.346Z,73.10
2019-01-23T03:18:18.111Z,73.40
2019-01-23T03:19:23.352Z,73.98
2019-01-23T03:20:28.131Z,72.84
2019-01-23T03:21:33.337Z,73.46
2019-01-23T03:22:38.515Z,72.84
2019-01-23T03:23:43.660Z,72.49
2019-01-23T03:24:48.872Z,72.84
2019-01-23T03:25:53.711Z,73.79
2019-01-23T03:26:58.498Z,72.96
2019-01-23T03:28:03.731Z,73.09
2019-01-23T03:29:08.363Z,73.02
2019-01-23T03:30:21.549Z,73.54
2019-01-23T03:31:27.014Z,72.79
2019-01-23T03:32:32.141Z,72.95
2019-01-23T03:33:38.046Z,71.93
2019-01-23T03:34:42.815Z,73.01
2019-01-23T03:35:47.751Z,73.56
2019-01-23T03:36:52.550Z,72.22
2019-01-23T03:37:57.381Z,72.09
2019-01-23T03:39:02.587Z,72.95
2019-01-23T03:40:10.191Z,72.71
2019-01-23T03:41:15.303Z,72.03
2019-01-23T03:42:20.520Z,73.23
2019-01-23T03:43:25.596Z,72.13
2019-01-23T03:44:30.749Z,73.22
2019-01-23T03:45:35.814Z,72.37
2019-01-23T03:46:40.589Z,74.78
2019-01-23T03:47:45.367Z,72.07
2019-01-23T03:48:50.827Z,72.53
2019-01-23T03:49:55.594Z,72.31
2019-01-23T03:51:01.043Z,72.61
2019-01-23T03:52:05.828Z,71.90
2019-01-23T03:53:10.605Z,72.46
2019-01-23T03:54:15.402Z,72.76
2019-01-23T03:55:20.257Z,72.44
2019-01-23T03:56:25.839Z,72.47
2019-01-23T03:57:30.972Z,73.38
2019-01-23T03:58:35.779Z,73.91
2019-01-23T03:59:40.598Z,72.00
2019-01-23T04:00:45.414Z,72.65
2019-01-23T04:01:50.716Z,73.33
2019-01-23T04:02:55.224Z,73.96
2019-01-23T04:04:00.109Z,73.00
2019-01-23T04:05:05.020Z,73.20
2019-01-23T04:06:09.508Z,72.02
2019-01-23T04:07:14.292Z,71.68
2019-01-23T04:08:18.786Z,73.47
2019-01-23T04:09:23.290Z,72.25
2019-01-23T04:10:28.393Z,72.40
2019-01-23T04:11:33.597Z,72.59
2019-01-23T04:12:38.786Z,73.33
2019-01-23T04:13:43.863Z,74.01
2019-01-23T04:14:49.694Z,73.92
2019-01-23T04:15:54.479Z,73.01
2019-01-23T04:16:59.292Z,72.71
2019-01-23T04:18:04.418Z,72.07
2019-01-23T04:19:09.193Z,72.39
2019-01-23T04:20:21.864Z,73.56
2019-01-23T04:21:27.024Z,72.14
2019-01-23T04:22:31.864Z,73.88
2019-01-23T04:23:36.862Z,73.05
2019-01-23T04:24:42.379Z,72.07
2019-01-23T04:25:49.529Z,72.48
2019-01-23T04:26:55.013Z,73.16
2019-01-23T04:27:59.777Z,72.98
2019-01-23T04:29:04.673Z,72.97
2019-01-23T04:30:11.515Z,72.21
2019-01-23T04:31:16.659Z,72.19
2019-01-23T04:32:21.833Z,73.68
2019-01-23T04:33:27.022Z,73.33
2019-01-23T04:34:32.520Z,71.94
2019-01-23T04:35:37.638Z,72.70
2019-01-23T04:36:42.424Z,73.91
2019-01-23T04:37:46.944Z,72.81
2019-01-23T04:38:52.351Z,72.35
2019-01-23T04:39:57.444Z,72.53
2019-01-23T04:41:02.865Z,71.92
2019-01-23T04:42:08.512Z,71.80
2019-01-23T04:43:14.136Z,71.92
2019-01-23T04:44:19.621Z,73.16
2019-01-23T04:45:24.709Z,73.08
2019-01-23T04:46:29.899Z,73.46
2019-01-23T04:47:34.683Z,74.36
2019-01-23T04:48:40.152Z,72.66
2019-01-23T04:49:45.661Z,72.22
2019-01-23T04:51:27.902Z,73.27
2019-01-23T04:52:54.520Z,72.46
2019-01-23T04:53:59.720Z,72.27
2019-01-23T04:55:04.886Z,72.30
2019-01-23T04:56:09.990Z,71.84
2019-01-23T04:57:15.265Z,72.16
2019-01-23T04:58:20.405Z,74.48
2019-01-23T04:59:25.837Z,72.55
2019-01-23T05:00:31.280Z,72.17
2019-01-23T05:01:36.061Z,71.86
2019-01-23T05:02:40.867Z,71.34
2019-01-23T05:03:46.112Z,72.79
2019-01-23T05:04:51.530Z,71.95
2019-01-23T05:05:56.315Z,72.78
2019-01-23T05:07:01.461Z,71.79
2019-01-23T05:08:06.744Z,72.54
2019-01-23T05:09:12.327Z,72.43
2019-01-23T05:10:17.741Z,72.26
2019-01-23T05:11:22.924Z,72.69
2019-01-23T05:12:28.246Z,71.71
2019-01-23T05:13:33.328Z,73.04
2019-01-23T05:14:38.087Z,72.56
2019-01-23T05:15:42.851Z,75.11
2019-01-23T05:16:47.960Z,72.47
2019-01-23T05:17:53.122Z,72.12
2019-01-23T05:18:58.661Z,72.20
2019-01-23T05:20:03.808Z,72.72
2019-01-23T05:21:08.350Z,72.07
2019-01-23T05:22:12.840Z,72.50
2019-01-23T05:23:18.069Z,73.27
2019-01-23T05:24:23.238Z,74.19
2019-01-23T05:25:27.719Z,73.05
2019-01-23T05:26:32.472Z,74.51
2019-01-23T05:27:38.265Z,73.43
2019-01-23T05:28:44.144Z,71.70
2019-01-23T05:29:54.848Z,71.80
2019-01-23T05:30:55.541Z,72.49
2019-01-23T05:32:00.345Z,71.67
2019-01-23T05:33:05.607Z,72.55
2019-01-23T05:34:10.678Z,72.22
2019-01-23T05:35:15.495Z,72.21
2019-01-23T05:36:20.262Z,71.82
2019-01-23T05:37:25.030Z,72.31
2019-01-23T05:38:30.158Z,72.67
2019-01-23T05:39:35.324Z,71.46
2019-01-23T05:40:40.981Z,71.98
2019-01-23T05:41:46.529Z,71.19
2019-01-23T05:42:51.040Z,71.12
2019-01-23T05:43:56.574Z,71.55
2019-01-23T05:45:01.342Z,72.67
2019-01-23T05:46:06.835Z,72.56
2019-01-23T05:47:12.257Z,72.72
2019-01-23T05:48:17.006Z,72.45
2019-01-23T05:49:22.137Z,72.58
2019-01-23T05:50:26.941Z,72.91
2019-01-23T05:51:31.803Z,73.12
2019-01-23T05:52:36.594Z,74.90
2019-01-23T05:53:41.803Z,73.97
2019-01-23T05:54:47.154Z,72.64
2019-01-23T05:55:51.982Z,74.34
2019-01-23T05:56:57.472Z,72.10
2019-01-23T05:58:02.906Z,73.26
2019-01-23T05:59:07.883Z,71.46
2019-01-23T06:00:17.833Z,72.05
2019-01-23T06:01:23.032Z,71.88
2019-01-23T06:02:28.413Z,71.81
2019-01-23T06:03:33.312Z,72.50
2019-01-23T06:04:38.110Z,74.27
2019-01-23T06:05:42.887Z,73.57
2019-01-23T06:06:47.409Z,72.89
2019-01-23T06:07:52.209Z,72.44
2019-01-23T06:08:57.063Z,73.59
2019-01-23T06:10:02.277Z,75.27
2019-01-23T06:11:07.393Z,74.92
2019-01-23T06:12:12.542Z,73.91
2019-01-23T06:13:17.654Z,72.81
2019-01-23T06:14:22.860Z,73.52
2019-01-23T06:15:28.309Z,72.95
2019-01-23T06:16:33.483Z,73.62
2019-01-23T06:17:38.617Z,73.70
2019-01-23T06:18:43.155Z,74.38
2019-01-23T06:19:48.241Z,72.61
2019-01-23T06:20:53.034Z,72.91
2019-01-23T06:21:58.007Z,73.69
2019-01-23T06:23:03.135Z,73.89
2019-01-23T06:24:08.339Z,74.30
2019-01-23T06:25:13.588Z,73.89
2019-01-23T06:26:19.404Z,73.46
2019-01-23T06:27:24.204Z,73.53
2019-01-23T06:28:29.285Z,74.08
2019-01-23T06:29:34.888Z,74.36
2019-01-23T06:30:40.564Z,74.39
2019-01-23T06:31:45.234Z,74.39
2019-01-23T06:32:50.620Z,74.62
2019-01-23T06:33:55.589Z,74.24
2019-01-23T06:35:00.539Z,74.08
2019-01-23T06:36:05.638Z,74.81
2019-01-23T06:37:10.437Z,73.64
2019-01-23T06:38:15.998Z,73.86
2019-01-23T06:39:21.520Z,73.17
2019-01-23T06:40:26.695Z,73.74
2019-01-23T06:41:31.483Z,75.05
2019-01-23T06:42:36.624Z,73.75
2019-01-23T06:43:41.420Z,73.53
2019-01-23T06:44:46.221Z,73.37
2019-01-23T06:45:51.109Z,72.69
2019-01-23T06:46:56.702Z,73.03
2019-01-23T06:48:01.199Z,73.23
2019-01-23T06:49:06.742Z,73.01
2019-01-23T06:50:14.867Z,73.17
2019-01-23T06:51:19.618Z,72.83
2019-01-23T06:52:24.424Z,72.79
2019-01-23T06:53:30.643Z,73.28
2019-01-23T06:54:35.447Z,73.80
2019-01-23T06:55:40.508Z,72.95
2019-01-23T06:56:45.269Z,72.46
2019-01-23T06:57:49.755Z,72.19
2019-01-23T06:58:54.864Z,72.62
2019-01-23T07:00:00.178Z,72.35
2019-01-23T07:01:05.805Z,72.69
2019-01-23T07:02:10.963Z,74.19
2019-01-23T07:03:15.715Z,72.79
2019-01-23T07:04:20.613Z,72.09
2019-01-23T07:05:26.035Z,72.36
2019-01-23T07:06:31.527Z,72.23
2019-01-23T07:07:37.059Z,72.07
2019-01-23T07:08:41.801Z,72.89
2019-01-23T07:09:46.587Z,72.36
2019-01-23T07:10:51.689Z,72.43
2019-01-23T07:11:56.475Z,72.53
2019-01-23T07:13:01.241Z,71.71
2019-01-23T07:14:06.388Z,72.25
2019-01-23T07:15:11.291Z,72.32
2019-01-23T07:16:16.512Z,71.90
2019-01-23T07:17:21.002Z,71.04
2019-01-23T07:18:25.791Z,71.99
2019-01-23T07:19:30.275Z,71.89
2019-01-23T07:20:35.029Z,73.25
2019-01-23T07:21:39.834Z,71.84
2019-01-23T07:22:44.998Z,73.26
2019-01-23T07:23:50.174Z,71.36
2019-01-23T07:24:55.357Z,71.25
2019-01-23T07:26:00.156Z,72.09
2019-01-23T07:27:05.264Z,72.68
2019-01-23T07:28:11.268Z,72.18
2019-01-23T07:29:16.780Z,71.14
2019-01-23T07:30:27.144Z,71.04
2019-01-23T07:31:32.557Z,71.14
2019-01-23T07:32:38.501Z,70.62
2019-01-23T07:33:43.330Z,69.89
2019-01-23T07:34:48.472Z,69.84
2019-01-23T07:35:53.611Z,70.66
2019-01-23T07:36:58.546Z,70.58
2019-01-23T07:38:03.719Z,70.22
2019-01-23T07:39:10.715Z,70.57
2019-01-23T07:40:15.494Z,70.78
2019-01-23T07:41:20.300Z,70.81
2019-01-23T07:42:25.914Z,70.26
2019-01-23T07:43:31.085Z,71.06
2019-01-23T07:44:36.266Z,69.76
2019-01-23T07:45:41.450Z,70.01
2019-01-23T07:46:46.243Z,70.36
2019-01-23T07:47:51.041Z,70.78
2019-01-23T07:48:56.126Z,70.25
2019-01-23T07:50:00.601Z,69.82
2019-01-23T07:51:05.714Z,70.97
2019-01-23T07:52:10.909Z,70.14
2019-01-23T07:53:15.687Z,70.23
2019-01-23T07:54:21.379Z,69.96
2019-01-23T07:55:26.950Z,70.20
2019-01-23T07:56:32.017Z,69.75
2019-01-23T07:57:37.106Z,69.36
2019-01-23T07:58:42.265Z,69.36
2019-01-23T07:59:47.010Z,69.57
2019-01-23T08:00:51.860Z,69.55
2019-01-23T08:01:57.041Z,71.84
2019-01-23T08:03:01.838Z,71.27
2019-01-23T08:04:07.429Z,69.61
2019-01-23T08:05:12.636Z,69.63
2019-01-23T08:06:17.856Z,70.52
2019-01-23T08:07:22.636Z,70.36
2019-01-23T08:08:27.786Z,70.87
2019-01-23T08:09:32.555Z,70.76
2019-01-23T08:10:37.621Z,70.28
2019-01-23T08:11:43.046Z,68.96
2019-01-23T08:12:47.980Z,68.49
2019-01-23T08:13:53.128Z,69.18
2019-01-23T08:15:00.020Z,69.93
2019-01-23T08:16:04.866Z,70.19
2019-01-23T08:17:09.637Z,70.83
2019-01-23T08:18:14.417Z,68.81
2019-01-23T08:19:19.277Z,68.97
2019-01-23T08:20:24.488Z,69.04
2019-01-23T08:21:29.256Z,68.82
2019-01-23T08:22:34.446Z,68.64
2019-01-23T08:23:39.245Z,67.97
2019-01-23T08:24:44.428Z,68.30
2019-01-23T08:25:49.584Z,69.24
2019-01-23T08:26:54.370Z,68.06
2019-01-23T08:27:59.139Z,67.96
2019-01-23T08:29:04.240Z,69.82
2019-01-23T08:30:09.110Z,70.05
2019-01-23T08:31:13.856Z,67.87
2019-01-23T08:32:18.639Z,69.73
2019-01-23T08:33:23.878Z,68.44
2019-01-23T08:34:29.140Z,67.51
2019-01-23T08:35:33.939Z,68.05
2019-01-23T08:36:38.720Z,67.30
2019-01-23T08:37:43.494Z,68.49
2019-01-23T08:38:49.195Z,68.36
2019-01-23T08:39:53.957Z,69.03
2019-01-23T08:40:58.725Z,68.06
2019-01-23T08:42:03.522Z,67.64
2019-01-23T08:43:08.510Z,68.31
2019-01-23T08:44:13.614Z,68.81
2019-01-23T08:45:18.833Z,68.21
2019-01-23T08:46:23.605Z,68.27
2019-01-23T08:47:28.884Z,68.04
2019-01-23T08:48:34.018Z,67.65
2019-01-23T08:49:38.836Z,67.98
2019-01-23T08:50:45.120Z,67.27
2019-01-23T08:51:50.589Z,68.13
2019-01-23T08:52:55.627Z,69.25
2019-01-23T08:54:00.457Z,67.56
2019-01-23T08:55:08.361Z,68.18
2019-01-23T08:56:13.135Z,66.97
2019-01-23T08:57:17.916Z,67.22
2019-01-23T08:58:22.654Z,66.79
2019-01-23T08:59:27.417Z,66.28
2019-01-23T09:00:32.541Z,65.89
2019-01-23T09:01:37.371Z,65.73
2019-01-23T09:02:42.175Z,65.99
2019-01-23T09:03:47.621Z,66.78
2019-01-23T09:04:53.160Z,65.37
2019-01-23T09:05:58.350Z,65.79
2019-01-23T09:07:03.123Z,65.53
2019-01-23T09:08:08.267Z,66.15
2019-01-23T09:09:13.436Z,64.65
2019-01-23T09:10:20.154Z,65.68
2019-01-23T09:11:25.064Z,65.55
2019-01-23T09:12:29.838Z,65.28
2019-01-23T09:13:34.644Z,65.21
2019-01-23T09:14:39.711Z,64.71
2019-01-23T09:15:45.141Z,64.47
2019-01-23T09:16:49.927Z,65.38
2019-01-23T09:17:54.996Z,65.20
2019-01-23T09:19:00.074Z,64.83
2019-01-23T09:20:05.960Z,65.13
2019-01-23T09:21:10.731Z,64.85
2019-01-23T09:22:16.343Z,65.18
2019-01-23T09:23:21.151Z,65.70
2019-01-23T09:24:26.795Z,64.84
2019-01-23T09:25:32.272Z,63.99
2019-01-23T09:26:37.069Z,64.41
2019-01-23T09:27:42.266Z,64.72
2019-01-23T09:28:47.448Z,65.80
2019-01-23T09:29:52.528Z,65.28
2019-01-23T09:31:29.758Z,62.67
2019-01-23T09:32:57.954Z,62.58
2019-01-23T09:34:30.167Z,64.46
2019-01-23T09:36:18.874Z,62.04
2019-01-23T09:37:53.559Z,62.88
2019-01-23T09:39:13.425Z,63.08
2019-01-23T09:40:36.589Z,63.48
2019-01-23T09:41:55.768Z,62.84
2019-01-23T09:43:33.181Z,62.79
2019-01-23T09:45:11.550Z,62.83
2019-01-23T09:46:51.944Z,63.10
2019-01-23T09:48:21.369Z,62.17
2019-01-23T09:49:52.522Z,63.60
2019-01-23T09:51:52.480Z,62.52
2019-01-23T09:53:26.780Z,61.71
2019-01-23T09:54:31.610Z,62.16
2019-01-23T09:55:40.284Z,62.16
2019-01-23T09:56:48.236Z,64.58
2019-01-23T09:57:58.733Z,59.80
2019-01-23T09:59:03.266Z,60.03
2019-01-23T10:00:11.431Z,59.81
2019-01-23T10:01:16.345Z,61.34
2019-01-23T10:02:41.498Z,59.89
2019-01-23T10:03:57.283Z,59.94
2019-01-23T10:37:38.988Z,58.06
2019-01-23T10:39:11.624Z,60.13
2019-01-23T10:40:49.445Z,57.03
2019-01-23T10:41:51.750Z,58.26
2019-01-23T10:43:02.508Z,57.98
2019-01-23T10:44:09.977Z,57.77
2019-01-23T10:45:20.415Z,56.30
2019-01-23T10:46:25.470Z,56.80
2019-01-23T10:47:31.191Z,56.44
2019-01-23T10:48:38.016Z,56.62
2019-01-23T10:49:42.361Z,57.02
2019-01-23T10:50:47.166Z,56.63
2019-01-23T10:51:52.380Z,55.83
2019-01-23T10:52:58.428Z,57.06
2019-01-23T10:54:03.190Z,56.85
2019-01-23T10:55:08.535Z,57.15
2019-01-23T10:56:13.306Z,56.98
2019-01-23T10:57:18.122Z,57.02
2019-01-23T10:58:32.785Z,56.56
2019-01-23T10:59:41.275Z,56.55
2019-01-23T11:00:46.343Z,57.09
2019-01-23T11:01:58.513Z,56.65
2019-01-23T11:03:12.173Z,56.97
2019-01-23T11:04:24.788Z,56.15
2019-01-23T11:05:31.189Z,55.26
2019-01-23T11:08:10.292Z,55.15
2019-01-23T11:09:52.155Z,55.17
2019-01-23T11:10:57.976Z,54.97
2019-01-23T11:13:57.860Z,53.73
2019-01-23T11:16:39.655Z,54.02
2019-01-23T11:17:54.071Z,56.50
2019-01-23T11:19:05.033Z,54.86
2019-01-23T11:20:24.800Z,54.44
2019-01-23T11:21:38.309Z,55.44
2019-01-23T11:23:22.591Z,55.78
2019-01-23T11:24:35.325Z,57.30
2019-01-23T11:25:43.101Z,54.92
2019-01-23T11:26:49.832Z,56.73
2019-01-23T11:28:04.574Z,54.58
2019-01-23T11:29:22.340Z,55.53
2019-01-23T11:30:34.286Z,55.05
2019-01-23T11:31:56.916Z,55.31
2019-01-23T11:33:20.570Z,55.19
2019-01-23T11:34:59.045Z,54.58
2019-01-23T11:38:21.258Z,54.68
2019-01-23T11:40:02.359Z,55.27
2019-01-23T11:41:17.477Z,54.45
2019-01-23T11:42:42.408Z,54.15
2019-01-23T11:43:47.725Z,52.55
2019-01-23T11:44:53.529Z,54.65
2019-01-23T11:45:58.618Z,54.74
2019-01-23T11:47:03.652Z,55.40
2019-01-23T11:48:08.668Z,56.91
2019-01-23T11:49:18.999Z,53.09
2019-01-23T11:50:24.259Z,52.36
2019-01-23T11:54:21.063Z,53.02
2019-01-23T11:56:02.211Z,52.15
2019-01-23T11:57:07.188Z,52.54
2019-01-23T12:05:17.572Z,50.96
2019-01-23T12:08:18.325Z,51.10
2019-01-23T12:08:57.277Z,50.91
2019-01-23T12:11:13.276Z,49.93
2019-01-23T12:22:19.629Z,51.78
2019-01-23T12:24:52.269Z,52.76
2019-01-23T12:26:00.549Z,52.42
2019-01-23T12:27:30.768Z,53.84
2019-01-23T12:28:56.050Z,52.87
2019-01-23T12:34:49.094Z,53.90
2019-01-23T12:35:53.878Z,54.26
2019-01-23T12:37:11.878Z,55.16
2019-01-23T12:38:32.702Z,55.12
2019-01-23T12:39:40.750Z,54.83
2019-01-23T12:40:55.527Z,56.08
2019-01-23T12:42:01.090Z,55.13
2019-01-23T12:43:09.240Z,56.11
2019-01-23T12:44:14.262Z,56.24
2019-01-23T12:45:30.816Z,55.59
2019-01-23T12:57:26.767Z,55.46
2019-01-23T12:58:31.617Z,55.00
2019-01-23T12:59:36.489Z,55.74
2019-01-23T13:00:57.252Z,55.37
2019-01-23T13:02:20.204Z,55.13
2019-01-23T13:03:25.422Z,55.04
2019-01-23T13:04:53.546Z,55.89
2019-01-23T13:05:58.458Z,55.62
2019-01-23T13:07:03.692Z,55.73
2019-01-23T13:08:10.238Z,56.35
2019-01-23T13:09:17.118Z,55.84
2019-01-23T13:10:25.540Z,55.76
2019-01-23T13:17:08.147Z,55.12
2019-01-23T13:18:08.832Z,55.97
2019-01-23T13:19:13.514Z,55.80
2019-01-23T13:20:18.845Z,54.97
2019-01-23T13:21:23.668Z,54.66
2019-01-23T13:22:28.747Z,54.80
2019-01-23T13:23:33.950Z,56.21
2019-01-23T13:24:38.720Z,53.72
2019-01-23T13:25:43.191Z,53.70
2019-01-23T13:26:47.947Z,55.06
2019-01-23T13:27:52.534Z,55.56
2019-01-23T13:28:57.786Z,53.26
2019-01-23T13:30:02.265Z,54.41
2019-01-23T13:31:07.552Z,54.63
2019-01-23T13:32:12.730Z,55.28
2019-01-23T13:33:17.974Z,55.18
2019-01-23T13:34:22.781Z,55.14
2019-01-23T13:35:46.609Z,55.28
2019-01-23T13:36:51.394Z,54.65
2019-01-23T13:37:56.352Z,53.35
2019-01-23T13:39:01.306Z,54.21
2019-01-23T13:40:09.614Z,54.81
2019-01-23T13:41:14.107Z,54.64
2019-01-23T13:42:19.597Z,54.99
2019-01-23T13:43:24.414Z,55.32
2019-01-23T13:44:29.300Z,55.60
2019-01-23T13:45:34.074Z,54.89
2019-01-23T13:46:39.557Z,55.78
2019-01-23T13:47:44.662Z,55.94
2019-01-23T13:48:49.474Z,56.06
2019-01-23T13:49:54.240Z,54.71
2019-01-23T13:51:00.471Z,56.08
2019-01-23T13:52:05.460Z,54.53
2019-01-23T13:53:10.676Z,54.93
2019-01-23T13:54:15.843Z,54.82
2019-01-23T13:55:21.212Z,54.81
2019-01-23T13:56:25.741Z,55.36
2019-01-23T13:57:30.617Z,55.94
2019-01-23T13:58:41.764Z,55.21
2019-01-23T13:59:42.169Z,55.28
2019-01-23T14:00:47.434Z,55.84
2019-01-23T14:01:56.244Z,55.95
2019-01-23T14:02:59.190Z,54.92
2019-01-23T14:04:03.947Z,55.04
2019-01-23T14:05:09.654Z,56.49
2019-01-23T14:06:14.573Z,56.08
2019-01-23T14:07:20.031Z,55.53
2019-01-23T14:08:24.829Z,55.19
2019-01-23T14:09:29.316Z,54.92
2019-01-23T14:10:33.859Z,55.82
2019-01-23T14:11:38.640Z,55.99
2019-01-23T14:12:43.237Z,56.17
2019-01-23T14:13:48.159Z,56.58
2019-01-23T14:14:53.033Z,57.08
2019-01-23T14:15:58.486Z,56.38
2019-01-23T14:17:03.282Z,56.08
2019-01-23T14:18:08.516Z,55.98
2019-01-23T14:19:13.395Z,55.91
2019-01-23T14:20:18.174Z,55.97
2019-01-23T14:21:22.991Z,55.87
2019-01-23T14:22:28.645Z,56.56
2019-01-23T14:23:34.168Z,58.02
2019-01-23T14:24:39.674Z,57.29
2019-01-23T14:25:44.660Z,56.42
2019-01-23T14:26:49.450Z,56.35
2019-01-23T14:27:55.018Z,57.28
2019-01-23T14:28:59.789Z,57.36
2019-01-23T14:30:04.745Z,57.78
2019-01-23T14:31:09.554Z,56.86
2019-01-23T14:32:14.367Z,57.16
2019-01-23T14:33:20.350Z,57.76
2019-01-23T14:34:25.115Z,57.18
2019-01-23T14:35:30.628Z,57.02
2019-01-23T14:36:35.229Z,57.27
2019-01-23T14:37:40.344Z,57.29
2019-01-23T14:38:45.278Z,57.76
2019-01-23T14:39:50.211Z,57.82
2019-01-23T14:40:55.855Z,57.70
2019-01-23T14:42:02.090Z,57.29
2019-01-23T14:43:24.180Z,58.46
2019-01-23T14:44:28.713Z,57.38
2019-01-23T14:45:35.416Z,56.86
2019-01-23T14:46:41.161Z,57.23
2019-01-23T14:47:48.913Z,57.61
2019-01-23T14:48:54.456Z,57.32
2019-01-23T14:50:05.118Z,57.34
2019-01-23T14:51:10.342Z,57.13
2019-01-23T14:52:15.773Z,58.07
2019-01-23T14:53:22.153Z,57.93
2019-01-23T14:54:27.442Z,57.27
2019-01-23T14:55:32.199Z,57.71
2019-01-23T14:56:37.154Z,58.15
2019-01-23T14:57:42.650Z,57.78
2019-01-23T14:58:47.482Z,57.08
2019-01-23T14:59:53.414Z,58.33
2019-01-23T15:00:59.100Z,58.90
2019-01-23T15:02:10.161Z,59.10
2019-01-23T15:03:12.031Z,59.11
2019-01-23T15:04:17.739Z,60.38
2019-01-23T15:05:22.631Z,59.57
2019-01-23T15:06:28.092Z,59.44
2019-01-23T15:07:35.381Z,59.40
2019-01-23T15:08:43.296Z,58.27
2019-01-23T15:09:51.194Z,58.79
2019-01-23T15:10:56.420Z,57.48
2019-01-23T15:12:02.591Z,57.85
2019-01-23T15:13:07.997Z,57.85
2019-01-23T15:14:15.131Z,58.68
2019-01-23T15:15:19.921Z,58.48
2019-01-23T15:16:24.724Z,57.87
2019-01-23T15:17:29.844Z,58.13
2019-01-23T15:18:34.501Z,58.48
2019-01-23T15:19:39.502Z,58.97
2019-01-23T15:20:43.987Z,59.13
2019-01-23T15:21:49.933Z,59.11
2019-01-23T15:22:55.198Z,59.65
2019-01-23T15:23:59.735Z,59.90
2019-01-23T15:25:04.596Z,59.42
2019-01-23T15:26:09.685Z,59.68
2019-01-23T15:27:14.909Z,58.78
2019-01-23T15:28:19.814Z,58.89
2019-01-23T15:29:24.964Z,60.13
2019-01-23T15:30:29.451Z,60.02
2019-01-23T15:31:33.931Z,59.91
2019-01-23T15:32:38.538Z,59.93
2019-01-23T15:33:43.374Z,59.50
2019-01-23T15:34:48.186Z,59.72
2019-01-23T15:35:53.336Z,60.17
2019-01-23T15:36:58.552Z,60.46
2019-01-23T15:38:03.449Z,61.10
2019-01-23T15:39:09.497Z,61.04
2019-01-23T15:40:17.589Z,61.02
2019-01-23T15:41:22.142Z,60.98
2019-01-23T15:42:27.291Z,61.38
2019-01-23T15:43:32.490Z,61.33
2019-01-23T15:44:37.620Z,60.79